COB4 weather

Orangeville / Brundle Field
Ontario, Canada

Public forecast

Using degrees Celsius for public forecast. Weather courtesy of forecast.io.

METAR (pilot weather report)

Closest report is Waterloo Airport, 26.3 nm (48.7 km) SSW. Retrieved 2019/05/19 22:38 UTC (0 seconds ago):

CYKF 192238Z AUTO 26022G41KT 6SM -RA SCT028 SCT043 BKN060 OVC074 19/16 A2975 RMK PRESRR SLP079 DENSITY ALT 1900FT

TAF (pilot weather forecast)

Closest forecast is Waterloo Airport, 26.3 nm (48.7 km) SSW. Retrieved 2019/05/19 20:42 UTC (2 hours ago):

TAF CYKF 191939Z 1920/2008 21020G30KT P6SM SCT050 TEMPO 1920/1922 VRB20G35KT P6SM -SHRA VCTS BKN050CB FM192200 22015G25KT P6SM -SHRA BKN060 PROB30 1922/2003 VRB20G35KT 11/2SM +TSRA BR OVC030CB FM200300 22010G20KT P6SM SCT060 BKN100 TEMPO 2003/2007 P6SM -SHRA BKN060 FM200700 23012KT P6SM BKN020 RMK FCST BASED ON AUTO OBS. NXT FCST BY 200200Z